sensor_id;sensor_type;location;lat;lon;timestamp;temperature;humidity
19437;DHT22;9854;50.968;4.168;2023-07-08T00:01:36;22.20;99.90
19437;DHT22;9854;50.968;4.168;2023-07-08T00:04:02;22.10;99.90
19437;DHT22;9854;50.968;4.168;2023-07-08T00:06:29;22.20;99.90
19437;DHT22;9854;50.968;4.168;2023-07-08T00:08:55;22.10;99.90
19437;DHT22;9854;50.968;4.168;2023-07-08T00:11:21;22.10;99.90
19437;DHT22;9854;50.968;4.168;2023-07-08T00:13:46;22.10;99.90
19437;DHT22;9854;50.968;4.168;2023-07-08T00:16:15;22.10;99.90
19437;DHT22;9854;50.968;4.168;2023-07-08T00:18:41;22.10;99.90
19437;DHT22;9854;50.968;4.168;2023-07-08T00:21:14;22.10;99.90
19437;DHT22;9854;50.968;4.168;2023-07-08T00:23:47;22.00;99.90
19437;DHT22;9854;50.968;4.168;2023-07-08T00:26:23;22.00;99.90
19437;DHT22;9854;50.968;4.168;2023-07-08T00:28:50;22.00;99.90
19437;DHT22;9854;50.968;4.168;2023-07-08T00:31:15;21.90;99.90
19437;DHT22;9854;50.968;4.168;2023-07-08T00:33:41;21.90;99.90
19437;DHT22;9854;50.968;4.168;2023-07-08T00:36:14;21.80;99.90
19437;DHT22;9854;50.968;4.168;2023-07-08T00:38:40;21.70;99.90
19437;DHT22;9854;50.968;4.168;2023-07-08T00:41:49;21.60;99.90
19437;DHT22;9854;50.968;4.168;2023-07-08T00:44:10;21.50;99.90
19437;DHT22;9854;50.968;4.168;2023-07-08T00:47:15;21.40;99.90
19437;DHT22;9854;50.968;4.168;2023-07-08T00:49:59;21.40;99.90
19437;DHT22;9854;50.968;4.168;2023-07-08T00:52:28;21.30;99.90
19437;DHT22;9854;50.968;4.168;2023-07-08T00:55:08;21.30;99.90
19437;DHT22;9854;50.968;4.168;2023-07-08T00:57:37;21.30;99.90
19437;DHT22;9854;50.968;4.168;2023-07-08T01:00:06;21.20;99.90
19437;DHT22;9854;50.968;4.168;2023-07-08T01:02:47;21.20;99.90
19437;DHT22;9854;50.968;4.168;2023-07-08T01:05:19;21.30;99.90
19437;DHT22;9854;50.968;4.168;2023-07-08T01:07:50;21.20;99.90
19437;DHT22;9854;50.968;4.168;2023-07-08T01:10:43;21.30;99.90
19437;DHT22;9854;50.968;4.168;2023-07-08T01:13:12;21.30;99.90
19437;DHT22;9854;50.968;4.168;2023-07-08T01:15:42;21.20;99.90
19437;DHT22;9854;50.968;4.168;2023-07-08T01:18:10;21.10;99.90
19437;DHT22;9854;50.968;4.168;2023-07-08T01:20:37;21.00;99.90
19437;DHT22;9854;50.968;4.168;2023-07-08T01:23:03;20.80;99.90
19437;DHT22;9854;50.968;4.168;2023-07-08T01:25:31;20.70;99.90
19437;DHT22;9854;50.968;4.168;2023-07-08T01:27:57;20.60;99.90
19437;DHT22;9854;50.968;4.168;2023-07-08T01:30:23;20.60;99.90
19437;DHT22;9854;50.968;4.168;2023-07-08T01:32:54;20.60;99.90
19437;DHT22;9854;50.968;4.168;2023-07-08T01:35:20;20.70;99.90
19437;DHT22;9854;50.968;4.168;2023-07-08T01:37:52;20.80;99.90
19437;DHT22;9854;50.968;4.168;2023-07-08T01:42:44;20.60;99.90
19437;DHT22;9854;50.968;4.168;2023-07-08T01:45:12;20.50;99.90
19437;DHT22;9854;50.968;4.168;2023-07-08T01:47:38;20.40;99.90
19437;DHT22;9854;50.968;4.168;2023-07-08T01:50:05;20.50;99.90
19437;DHT22;9854;50.968;4.168;2023-07-08T01:52:30;20.50;99.90
19437;DHT22;9854;50.968;4.168;2023-07-08T01:54:56;20.50;99.90
19437;DHT22;9854;50.968;4.168;2023-07-08T01:57:22;20.50;99.90
19437;DHT22;9854;50.968;4.168;2023-07-08T01:59:47;20.50;99.90
19437;DHT22;9854;50.968;4.168;2023-07-08T02:02:13;20.40;99.90
19437;DHT22;9854;50.968;4.168;2023-07-08T02:04:39;20.50;99.90
19437;DHT22;9854;50.968;4.168;2023-07-08T02:07:04;20.40;99.90
19437;DHT22;9854;50.968;4.168;2023-07-08T02:09:30;20.50;99.90
19437;DHT22;9854;50.968;4.168;2023-07-08T02:11:56;20.50;99.90
19437;DHT22;9854;50.968;4.168;2023-07-08T02:14:22;20.40;99.90
19437;DHT22;9854;50.968;4.168;2023-07-08T02:16:47;20.40;99.90
19437;DHT22;9854;50.968;4.168;2023-07-08T02:19:13;20.30;99.90
19437;DHT22;9854;50.968;4.168;2023-07-08T02:21:39;20.30;99.90
19437;DHT22;9854;50.968;4.168;2023-07-08T02:24:06;20.30;99.90
19437;DHT22;9854;50.968;4.168;2023-07-08T02:26:32;20.30;99.90
19437;DHT22;9854;50.968;4.168;2023-07-08T02:29:01;20.30;99.90
19437;DHT22;9854;50.968;4.168;2023-07-08T02:31:27;20.20;99.90
19437;DHT22;9854;50.968;4.168;2023-07-08T02:33:53;20.20;99.90
19437;DHT22;9854;50.968;4.168;2023-07-08T02:36:19;20.20;99.90
19437;DHT22;9854;50.968;4.168;2023-07-08T02:38:45;20.30;99.90
19437;DHT22;9854;50.968;4.168;2023-07-08T02:41:10;20.20;99.90
19437;DHT22;9854;50.968;4.168;2023-07-08T02:43:37;20.20;99.90
19437;DHT22;9854;50.968;4.168;2023-07-08T02:46:03;20.10;99.90
19437;DHT22;9854;50.968;4.168;2023-07-08T02:48:29;20.00;99.90
19437;DHT22;9854;50.968;4.168;2023-07-08T02:51:05;19.90;99.90
19437;DHT22;9854;50.968;4.168;2023-07-08T02:53:31;19.90;99.90
19437;DHT22;9854;50.968;4.168;2023-07-08T02:55:57;19.80;99.90
19437;DHT22;9854;50.968;4.168;2023-07-08T02:58:23;19.80;99.90
19437;DHT22;9854;50.968;4.168;2023-07-08T03:00:52;19.90;99.90
19437;DHT22;9854;50.968;4.168;2023-07-08T03:03:18;19.90;99.90
19437;DHT22;9854;50.968;4.168;2023-07-08T03:05:44;19.80;99.90
19437;DHT22;9854;50.968;4.168;2023-07-08T03:08:09;19.70;99.90
19437;DHT22;9854;50.968;4.168;2023-07-08T03:10:35;19.60;99.90
19437;DHT22;9854;50.968;4.168;2023-07-08T03:13:01;19.60;99.90
19437;DHT22;9854;50.968;4.168;2023-07-08T03:15:26;19.60;99.90
19437;DHT22;9854;50.968;4.168;2023-07-08T03:17:52;19.60;99.90
19437;DHT22;9854;50.968;4.168;2023-07-08T03:20:25;19.50;99.90
19437;DHT22;9854;50.968;4.168;2023-07-08T03:22:50;19.60;99.90
19437;DHT22;9854;50.968;4.168;2023-07-08T03:25:16;19.60;99.90
19437;DHT22;9854;50.968;4.168;2023-07-08T03:27:45;19.50;99.90
19437;DHT22;9854;50.968;4.168;2023-07-08T03:30:11;19.50;99.90
19437;DHT22;9854;50.968;4.168;2023-07-08T03:32:36;19.50;99.90
19437;DHT22;9854;50.968;4.168;2023-07-08T03:35:02;19.50;99.90
19437;DHT22;9854;50.968;4.168;2023-07-08T03:37:28;19.50;99.90
19437;DHT22;9854;50.968;4.168;2023-07-08T03:39:53;19.40;99.90
19437;DHT22;9854;50.968;4.168;2023-07-08T03:42:19;19.30;99.90
19437;DHT22;9854;50.968;4.168;2023-07-08T03:44:44;19.20;99.90
19437;DHT22;9854;50.968;4.168;2023-07-08T03:47:10;19.20;99.90
19437;DHT22;9854;50.968;4.168;2023-07-08T03:49:35;19.20;99.90
19437;DHT22;9854;50.968;4.168;2023-07-08T03:52:01;19.20;99.90
19437;DHT22;9854;50.968;4.168;2023-07-08T03:54:27;19.10;99.90
19437;DHT22;9854;50.968;4.168;2023-07-08T03:56:53;19.10;99.90
19437;DHT22;9854;50.968;4.168;2023-07-08T03:59:18;19.10;99.90
19437;DHT22;9854;50.968;4.168;2023-07-08T04:01:44;19.10;99.90
19437;DHT22;9854;50.968;4.168;2023-07-08T04:04:12;19.10;99.90
19437;DHT22;9854;50.968;4.168;2023-07-08T04:06:38;19.10;99.90
19437;DHT22;9854;50.968;4.168;2023-07-08T04:09:03;19.10;99.90
19437;DHT22;9854;50.968;4.168;2023-07-08T04:11:29;19.00;99.90
19437;DHT22;9854;50.968;4.168;2023-07-08T04:13:55;19.20;99.90
19437;DHT22;9854;50.968;4.168;2023-07-08T04:16:25;19.30;99.90
19437;DHT22;9854;50.968;4.168;2023-07-08T04:18:55;19.20;99.90
19437;DHT22;9854;50.968;4.168;2023-07-08T04:21:24;19.30;99.90
19437;DHT22;9854;50.968;4.168;2023-07-08T04:23:51;19.40;99.90
19437;DHT22;9854;50.968;4.168;2023-07-08T04:26:16;19.40;99.90
19437;DHT22;9854;50.968;4.168;2023-07-08T04:28:44;19.40;99.90
19437;DHT22;9854;50.968;4.168;2023-07-08T04:31:10;19.30;99.90
19437;DHT22;9854;50.968;4.168;2023-07-08T04:33:35;19.20;99.90
19437;DHT22;9854;50.968;4.168;2023-07-08T04:36:01;19.10;99.90
19437;DHT22;9854;50.968;4.168;2023-07-08T04:38:27;19.00;99.90
19437;DHT22;9854;50.968;4.168;2023-07-08T04:40:53;19.00;99.90
19437;DHT22;9854;50.968;4.168;2023-07-08T04:43:20;19.00;99.90
19437;DHT22;9854;50.968;4.168;2023-07-08T04:45:51;19.00;99.90
19437;DHT22;9854;50.968;4.168;2023-07-08T04:48:19;18.90;99.90
19437;DHT22;9854;50.968;4.168;2023-07-08T04:50:49;19.10;99.90
19437;DHT22;9854;50.968;4.168;2023-07-08T04:53:15;19.10;99.90
19437;DHT22;9854;50.968;4.168;2023-07-08T04:55:48;19.30;99.90
19437;DHT22;9854;50.968;4.168;2023-07-08T04:58:15;19.30;99.90
19437;DHT22;9854;50.968;4.168;2023-07-08T05:00:41;19.40;99.90
19437;DHT22;9854;50.968;4.168;2023-07-08T05:03:06;19.50;99.90
19437;DHT22;9854;50.968;4.168;2023-07-08T05:05:32;19.60;99.90
19437;DHT22;9854;50.968;4.168;2023-07-08T05:07:58;19.70;99.90
19437;DHT22;9854;50.968;4.168;2023-07-08T05:10:23;19.80;99.90
19437;DHT22;9854;50.968;4.168;2023-07-08T05:12:49;20.20;99.90
19437;DHT22;9854;50.968;4.168;2023-07-08T05:15:15;20.10;99.90
19437;DHT22;9854;50.968;4.168;2023-07-08T05:17:41;20.10;99.90
19437;DHT22;9854;50.968;4.168;2023-07-08T05:20:09;20.00;99.90
19437;DHT22;9854;50.968;4.168;2023-07-08T05:22:35;20.10;99.90
19437;DHT22;9854;50.968;4.168;2023-07-08T05:25:02;20.10;99.90
19437;DHT22;9854;50.968;4.168;2023-07-08T05:27:28;20.10;99.90
19437;DHT22;9854;50.968;4.168;2023-07-08T05:29:54;20.30;99.90
19437;DHT22;9854;50.968;4.168;2023-07-08T05:32:20;20.30;99.90
19437;DHT22;9854;50.968;4.168;2023-07-08T05:34:46;20.40;99.90
19437;DHT22;9854;50.968;4.168;2023-07-08T05:37:13;20.50;99.90
19437;DHT22;9854;50.968;4.168;2023-07-08T05:39:38;20.60;99.90
19437;DHT22;9854;50.968;4.168;2023-07-08T05:42:04;20.60;99.90
19437;DHT22;9854;50.968;4.168;2023-07-08T05:44:30;20.70;99.90
19437;DHT22;9854;50.968;4.168;2023-07-08T05:46:56;20.70;99.90
19437;DHT22;9854;50.968;4.168;2023-07-08T05:49:21;20.80;99.90
19437;DHT22;9854;50.968;4.168;2023-07-08T05:51:47;20.90;99.90
19437;DHT22;9854;50.968;4.168;2023-07-08T05:54:14;21.00;99.90
19437;DHT22;9854;50.968;4.168;2023-07-08T05:56:40;21.10;99.90
19437;DHT22;9854;50.968;4.168;2023-07-08T05:59:06;21.30;99.90
19437;DHT22;9854;50.968;4.168;2023-07-08T06:01:32;21.40;99.90
19437;DHT22;9854;50.968;4.168;2023-07-08T06:03:57;21.50;99.90
19437;DHT22;9854;50.968;4.168;2023-07-08T06:06:27;21.60;99.90
19437;DHT22;9854;50.968;4.168;2023-07-08T06:08:53;21.70;99.90
19437;DHT22;9854;50.968;4.168;2023-07-08T06:11:19;21.80;99.90
19437;DHT22;9854;50.968;4.168;2023-07-08T06:13:45;21.90;99.90
19437;DHT22;9854;50.968;4.168;2023-07-08T06:16:11;22.00;99.90
19437;DHT22;9854;50.968;4.168;2023-07-08T06:18:36;22.10;99.90
19437;DHT22;9854;50.968;4.168;2023-07-08T06:21:02;22.10;99.90
19437;DHT22;9854;50.968;4.168;2023-07-08T06:23:28;22.20;99.90
19437;DHT22;9854;50.968;4.168;2023-07-08T06:25:54;22.30;99.90
19437;DHT22;9854;50.968;4.168;2023-07-08T06:28:20;22.40;99.90
19437;DHT22;9854;50.968;4.168;2023-07-08T06:30:46;22.60;99.90
19437;DHT22;9854;50.968;4.168;2023-07-08T06:33:12;22.60;99.90
19437;DHT22;9854;50.968;4.168;2023-07-08T06:35:39;22.70;99.90
19437;DHT22;9854;50.968;4.168;2023-07-08T06:38:05;23.20;99.90
19437;DHT22;9854;50.968;4.168;2023-07-08T06:40:32;23.20;99.90
19437;DHT22;9854;50.968;4.168;2023-07-08T06:42:58;23.20;99.90
19437;DHT22;9854;50.968;4.168;2023-07-08T06:45:23;23.30;99.90
19437;DHT22;9854;50.968;4.168;2023-07-08T06:47:49;23.60;99.90
19437;DHT22;9854;50.968;4.168;2023-07-08T06:50:15;23.50;99.90
19437;DHT22;9854;50.968;4.168;2023-07-08T06:52:41;23.60;99.90
19437;DHT22;9854;50.968;4.168;2023-07-08T06:55:09;23.60;99.90
19437;DHT22;9854;50.968;4.168;2023-07-08T06:57:35;23.70;99.90
19437;DHT22;9854;50.968;4.168;2023-07-08T07:00:01;23.80;99.90
19437;DHT22;9854;50.968;4.168;2023-07-08T07:02:27;23.90;99.90
19437;DHT22;9854;50.968;4.168;2023-07-08T07:04:53;24.00;99.90
19437;DHT22;9854;50.968;4.168;2023-07-08T07:07:20;24.10;99.90
19437;DHT22;9854;50.968;4.168;2023-07-08T07:09:46;24.20;99.90
19437;DHT22;9854;50.968;4.168;2023-07-08T07:12:11;24.40;99.90
19437;DHT22;9854;50.968;4.168;2023-07-08T07:14:37;24.50;99.90
19437;DHT22;9854;50.968;4.168;2023-07-08T07:17:03;24.60;99.90
19437;DHT22;9854;50.968;4.168;2023-07-08T07:19:28;24.70;99.90
19437;DHT22;9854;50.968;4.168;2023-07-08T07:21:54;24.70;99.90
19437;DHT22;9854;50.968;4.168;2023-07-08T07:24:20;24.70;99.90
19437;DHT22;9854;50.968;4.168;2023-07-08T07:26:45;24.70;99.90
19437;DHT22;9854;50.968;4.168;2023-07-08T07:29:11;24.80;99.90
19437;DHT22;9854;50.968;4.168;2023-07-08T07:31:36;24.90;99.90
19437;DHT22;9854;50.968;4.168;2023-07-08T07:34:05;25.00;99.90
19437;DHT22;9854;50.968;4.168;2023-07-08T07:36:30;25.00;99.90
19437;DHT22;9854;50.968;4.168;2023-07-08T07:38:56;25.10;99.90
19437;DHT22;9854;50.968;4.168;2023-07-08T07:41:22;25.20;99.90
19437;DHT22;9854;50.968;4.168;2023-07-08T07:43:48;25.30;99.90
19437;DHT22;9854;50.968;4.168;2023-07-08T07:46:14;25.40;99.90
19437;DHT22;9854;50.968;4.168;2023-07-08T07:48:40;25.50;99.90
19437;DHT22;9854;50.968;4.168;2023-07-08T07:51:06;25.80;99.90
19437;DHT22;9854;50.968;4.168;2023-07-08T07:53:38;25.80;99.90
19437;DHT22;9854;50.968;4.168;2023-07-08T07:56:04;25.90;99.90
19437;DHT22;9854;50.968;4.168;2023-07-08T07:58:30;26.00;99.90
19437;DHT22;9854;50.968;4.168;2023-07-08T08:00:56;26.10;99.90
19437;DHT22;9854;50.968;4.168;2023-07-08T08:03:22;26.20;99.90
19437;DHT22;9854;50.968;4.168;2023-07-08T08:05:48;26.30;99.90
19437;DHT22;9854;50.968;4.168;2023-07-08T08:08:14;26.40;99.90
19437;DHT22;9854;50.968;4.168;2023-07-08T08:10:41;26.50;99.90
19437;DHT22;9854;50.968;4.168;2023-07-08T08:13:07;26.60;99.90
19437;DHT22;9854;50.968;4.168;2023-07-08T08:15:33;26.60;99.90
19437;DHT22;9854;50.968;4.168;2023-07-08T08:17:59;26.60;99.90
19437;DHT22;9854;50.968;4.168;2023-07-08T08:20:26;26.90;99.90
19437;DHT22;9854;50.968;4.168;2023-07-08T08:22:51;27.10;99.90
19437;DHT22;9854;50.968;4.168;2023-07-08T08:25:18;27.30;99.90
19437;DHT22;9854;50.968;4.168;2023-07-08T08:27:44;27.30;99.90
19437;DHT22;9854;50.968;4.168;2023-07-08T08:30:11;27.40;99.90
19437;DHT22;9854;50.968;4.168;2023-07-08T08:32:36;27.40;99.90
19437;DHT22;9854;50.968;4.168;2023-07-08T08:35:02;27.50;99.90
19437;DHT22;9854;50.968;4.168;2023-07-08T08:37:28;27.70;99.90
19437;DHT22;9854;50.968;4.168;2023-07-08T08:39:54;27.80;99.90
19437;DHT22;9854;50.968;4.168;2023-07-08T08:43:14;27.60;99.90
19437;DHT22;9854;50.968;4.168;2023-07-08T08:45:16;27.70;99.90
19437;DHT22;9854;50.968;4.168;2023-07-08T08:47:49;27.90;99.90
19437;DHT22;9854;50.968;4.168;2023-07-08T08:50:36;28.00;99.90
19437;DHT22;9854;50.968;4.168;2023-07-08T08:53:11;28.30;99.90
19437;DHT22;9854;50.968;4.168;2023-07-08T08:55:37;28.60;99.90
19437;DHT22;9854;50.968;4.168;2023-07-08T08:58:21;28.90;99.90
19437;DHT22;9854;50.968;4.168;2023-07-08T09:01:02;28.80;99.90
19437;DHT22;9854;50.968;4.168;2023-07-08T09:06:20;28.70;99.90
19437;DHT22;9854;50.968;4.168;2023-07-08T09:08:47;28.70;99.90
19437;DHT22;9854;50.968;4.168;2023-07-08T09:13:56;28.90;99.90
19437;DHT22;9854;50.968;4.168;2023-07-08T09:19:38;29.50;99.90
19437;DHT22;9854;50.968;4.168;2023-07-08T09:22:20;29.40;99.90
19437;DHT22;9854;50.968;4.168;2023-07-08T09:24:51;29.40;99.90
19437;DHT22;9854;50.968;4.168;2023-07-08T09:27:17;29.50;99.90
19437;DHT22;9854;50.968;4.168;2023-07-08T09:29:43;29.60;99.90
19437;DHT22;9854;50.968;4.168;2023-07-08T09:32:18;29.70;99.90
19437;DHT22;9854;50.968;4.168;2023-07-08T09:34:53;29.80;99.90
19437;DHT22;9854;50.968;4.168;2023-07-08T09:37:26;29.70;99.90
19437;DHT22;9854;50.968;4.168;2023-07-08T09:39:53;29.70;99.90
19437;DHT22;9854;50.968;4.168;2023-07-08T09:42:21;29.70;99.90
19437;DHT22;9854;50.968;4.168;2023-07-08T09:44:47;29.70;99.90
19437;DHT22;9854;50.968;4.168;2023-07-08T09:47:27;29.80;99.90
19437;DHT22;9854;50.968;4.168;2023-07-08T09:49:57;30.00;99.90
19437;DHT22;9854;50.968;4.168;2023-07-08T09:52:23;30.20;99.90
19437;DHT22;9854;50.968;4.168;2023-07-08T09:54:49;30.30;99.90
19437;DHT22;9854;50.968;4.168;2023-07-08T09:57:28;30.60;99.90
19437;DHT22;9854;50.968;4.168;2023-07-08T09:59:59;30.70;99.90
19437;DHT22;9854;50.968;4.168;2023-07-08T10:02:46;30.80;99.90
19437;DHT22;9854;50.968;4.168;2023-07-08T10:05:35;30.90;99.90
19437;DHT22;9854;50.968;4.168;2023-07-08T10:08:20;31.20;99.90
19437;DHT22;9854;50.968;4.168;2023-07-08T10:11:00;31.20;99.90
19437;DHT22;9854;50.968;4.168;2023-07-08T10:13:38;31.30;99.90
19437;DHT22;9854;50.968;4.168;2023-07-08T10:16:15;31.30;99.90
19437;DHT22;9854;50.968;4.168;2023-07-08T10:18:42;31.30;99.90
19437;DHT22;9854;50.968;4.168;2023-07-08T10:30:14;31.60;99.90
19437;DHT22;9854;50.968;4.168;2023-07-08T10:35:35;32.00;99.90
19437;DHT22;9854;50.968;4.168;2023-07-08T10:38:13;32.10;99.90
19437;DHT22;9854;50.968;4.168;2023-07-08T10:43:33;32.40;99.90
19437;DHT22;9854;50.968;4.168;2023-07-08T10:52:24;32.70;99.90
19437;DHT22;9854;50.968;4.168;2023-07-08T11:09:00;33.20;99.90
19437;DHT22;9854;50.968;4.168;2023-07-08T11:14:12;33.50;99.90
19437;DHT22;9854;50.968;4.168;2023-07-08T11:16:51;33.50;99.90
19437;DHT22;9854;50.968;4.168;2023-07-08T11:19:27;33.90;99.90
19437;DHT22;9854;50.968;4.168;2023-07-08T11:22:00;33.80;99.90
19437;DHT22;9854;50.968;4.168;2023-07-08T11:24:45;33.80;99.90
19437;DHT22;9854;50.968;4.168;2023-07-08T11:29:56;34.10;99.90
19437;DHT22;9854;50.968;4.168;2023-07-08T11:32:26;34.10;99.90
19437;DHT22;9854;50.968;4.168;2023-07-08T11:34:53;34.10;99.90
19437;DHT22;9854;50.968;4.168;2023-07-08T11:37:20;34.30;99.90
19437;DHT22;9854;50.968;4.168;2023-07-08T11:39:53;34.30;99.90
19437;DHT22;9854;50.968;4.168;2023-07-08T11:42:39;34.40;99.90
19437;DHT22;9854;50.968;4.168;2023-07-08T11:45:14;34.70;99.90
19437;DHT22;9854;50.968;4.168;2023-07-08T11:47:44;34.70;99.90
19437;DHT22;9854;50.968;4.168;2023-07-08T11:53:01;34.60;99.90
19437;DHT22;9854;50.968;4.168;2023-07-08T11:58:22;35.10;99.90
19437;DHT22;9854;50.968;4.168;2023-07-08T12:01:05;35.40;99.90
19437;DHT22;9854;50.968;4.168;2023-07-08T12:03:49;35.70;99.90
19437;DHT22;9854;50.968;4.168;2023-07-08T12:08:54;35.90;99.90
19437;DHT22;9854;50.968;4.168;2023-07-08T12:11:27;35.80;99.90
19437;DHT22;9854;50.968;4.168;2023-07-08T12:13:55;35.90;99.90
19437;DHT22;9854;50.968;4.168;2023-07-08T12:16:24;36.20;99.90
19437;DHT22;9854;50.968;4.168;2023-07-08T12:18:51;36.20;99.90
19437;DHT22;9854;50.968;4.168;2023-07-08T12:21:18;36.50;99.90
19437;DHT22;9854;50.968;4.168;2023-07-08T12:23:47;36.50;99.90
19437;DHT22;9854;50.968;4.168;2023-07-08T12:26:14;36.50;99.90
19437;DHT22;9854;50.968;4.168;2023-07-08T12:28:40;36.50;99.90
19437;DHT22;9854;50.968;4.168;2023-07-08T12:31:18;36.60;99.90
19437;DHT22;9854;50.968;4.168;2023-07-08T12:33:44;36.90;99.90
19437;DHT22;9854;50.968;4.168;2023-07-08T12:36:14;37.20;99.60
19437;DHT22;9854;50.968;4.168;2023-07-08T12:38:43;37.30;98.60
19437;DHT22;9854;50.968;4.168;2023-07-08T12:41:15;36.90;98.20
19437;DHT22;9854;50.968;4.168;2023-07-08T12:43:41;36.60;98.80
19437;DHT22;9854;50.968;4.168;2023-07-08T12:46:09;36.50;99.90
19437;DHT22;9854;50.968;4.168;2023-07-08T12:48:42;37.00;98.60
19437;DHT22;9854;50.968;4.168;2023-07-08T12:51:13;37.30;98.70
19437;DHT22;9854;50.968;4.168;2023-07-08T12:53:40;37.20;99.90
19437;DHT22;9854;50.968;4.168;2023-07-08T12:56:07;37.50;99.90
19437;DHT22;9854;50.968;4.168;2023-07-08T12:58:39;37.90;99.90
19437;DHT22;9854;50.968;4.168;2023-07-08T13:01:06;38.10;99.10
19437;DHT22;9854;50.968;4.168;2023-07-08T13:03:42;38.30;98.50
19437;DHT22;9854;50.968;4.168;2023-07-08T13:06:10;38.00;99.80
19437;DHT22;9854;50.968;4.168;2023-07-08T13:08:37;38.30;98.60
19437;DHT22;9854;50.968;4.168;2023-07-08T13:11:05;38.50;98.80
19437;DHT22;9854;50.968;4.168;2023-07-08T13:13:36;38.40;97.90
19437;DHT22;9854;50.968;4.168;2023-07-08T13:16:03;38.90;96.70
19437;DHT22;9854;50.968;4.168;2023-07-08T13:18:35;39.00;97.00
19437;DHT22;9854;50.968;4.168;2023-07-08T13:21:02;39.20;94.90
19437;DHT22;9854;50.968;4.168;2023-07-08T13:23:29;38.90;96.70
19437;DHT22;9854;50.968;4.168;2023-07-08T13:25:55;37.60;96.70
19437;DHT22;9854;50.968;4.168;2023-07-08T13:28:37;37.10;98.10
19437;DHT22;9854;50.968;4.168;2023-07-08T13:31:21;36.50;98.80
19437;DHT22;9854;50.968;4.168;2023-07-08T13:33:51;36.60;99.90
19437;DHT22;9854;50.968;4.168;2023-07-08T13:36:21;36.80;99.90
19437;DHT22;9854;50.968;4.168;2023-07-08T13:38:47;36.90;99.90
19437;DHT22;9854;50.968;4.168;2023-07-08T13:41:19;36.90;99.90
19437;DHT22;9854;50.968;4.168;2023-07-08T13:43:46;36.60;99.90
19437;DHT22;9854;50.968;4.168;2023-07-08T13:46:50;36.60;99.70
19437;DHT22;9854;50.968;4.168;2023-07-08T13:49:25;36.10;99.90
19437;DHT22;9854;50.968;4.168;2023-07-08T13:52:05;35.90;99.90
19437;DHT22;9854;50.968;4.168;2023-07-08T13:54:40;35.80;99.90
19437;DHT22;9854;50.968;4.168;2023-07-08T13:57:12;35.40;99.90
19437;DHT22;9854;50.968;4.168;2023-07-08T13:59:38;34.90;99.90
19437;DHT22;9854;50.968;4.168;2023-07-08T14:02:21;34.80;99.90
19437;DHT22;9854;50.968;4.168;2023-07-08T14:04:49;34.50;99.90
19437;DHT22;9854;50.968;4.168;2023-07-08T14:07:23;34.60;99.90
19437;DHT22;9854;50.968;4.168;2023-07-08T14:09:49;34.70;99.90
19437;DHT22;9854;50.968;4.168;2023-07-08T14:12:15;35.00;99.90
19437;DHT22;9854;50.968;4.168;2023-07-08T14:14:40;35.00;99.90
19437;DHT22;9854;50.968;4.168;2023-07-08T14:17:10;35.00;99.90
19437;DHT22;9854;50.968;4.168;2023-07-08T14:19:37;34.90;99.90
19437;DHT22;9854;50.968;4.168;2023-07-08T14:24:39;34.40;99.90
19437;DHT22;9854;50.968;4.168;2023-07-08T14:27:09;34.40;99.90
19437;DHT22;9854;50.968;4.168;2023-07-08T14:29:38;34.50;99.90
19437;DHT22;9854;50.968;4.168;2023-07-08T14:32:04;34.80;99.90
19437;DHT22;9854;50.968;4.168;2023-07-08T14:34:30;34.90;99.90
19437;DHT22;9854;50.968;4.168;2023-07-08T14:36:57;34.80;99.90
19437;DHT22;9854;50.968;4.168;2023-07-08T14:39:23;34.70;99.90
19437;DHT22;9854;50.968;4.168;2023-07-08T14:41:50;35.40;99.90
19437;DHT22;9854;50.968;4.168;2023-07-08T14:44:26;35.90;99.90
19437;DHT22;9854;50.968;4.168;2023-07-08T14:46:55;36.90;99.90
19437;DHT22;9854;50.968;4.168;2023-07-08T14:49:22;38.00;99.90
19437;DHT22;9854;50.968;4.168;2023-07-08T14:51:51;39.00;98.70
19437;DHT22;9854;50.968;4.168;2023-07-08T14:54:20;39.80;98.30
19437;DHT22;9854;50.968;4.168;2023-07-08T14:56:47;40.40;97.90
19437;DHT22;9854;50.968;4.168;2023-07-08T14:59:25;41.30;96.30
19437;DHT22;9854;50.968;4.168;2023-07-08T15:01:53;42.00;95.50
19437;DHT22;9854;50.968;4.168;2023-07-08T15:04:19;41.90;94.20
19437;DHT22;9854;50.968;4.168;2023-07-08T15:06:46;41.50;95.00
19437;DHT22;9854;50.968;4.168;2023-07-08T15:09:12;41.20;95.10
19437;DHT22;9854;50.968;4.168;2023-07-08T15:11:40;41.20;95.20
19437;DHT22;9854;50.968;4.168;2023-07-08T15:14:21;41.10;94.50
19437;DHT22;9854;50.968;4.168;2023-07-08T15:16:48;41.20;94.80
19437;DHT22;9854;50.968;4.168;2023-07-08T15:19:14;41.10;94.90
19437;DHT22;9854;50.968;4.168;2023-07-08T15:21:40;41.10;95.10
19437;DHT22;9854;50.968;4.168;2023-07-08T15:24:09;41.40;95.80
19437;DHT22;9854;50.968;4.168;2023-07-08T15:26:37;41.80;94.90
19437;DHT22;9854;50.968;4.168;2023-07-08T15:29:03;41.60;95.50
19437;DHT22;9854;50.968;4.168;2023-07-08T15:31:32;41.90;95.10
19437;DHT22;9854;50.968;4.168;2023-07-08T15:33:59;42.30;94.60
19437;DHT22;9854;50.968;4.168;2023-07-08T15:36:24;42.60;93.90
19437;DHT22;9854;50.968;4.168;2023-07-08T15:38:50;43.20;94.30
19437;DHT22;9854;50.968;4.168;2023-07-08T15:41:22;43.30;92.90
19437;DHT22;9854;50.968;4.168;2023-07-08T15:43:48;43.70;92.80
19437;DHT22;9854;50.968;4.168;2023-07-08T15:46:15;43.60;92.20
19437;DHT22;9854;50.968;4.168;2023-07-08T15:48:41;43.10;92.70
19437;DHT22;9854;50.968;4.168;2023-07-08T15:51:08;42.80;92.80
19437;DHT22;9854;50.968;4.168;2023-07-08T15:53:34;42.90;92.70
19437;DHT22;9854;50.968;4.168;2023-07-08T15:55:59;42.70;92.40
19437;DHT22;9854;50.968;4.168;2023-07-08T15:58:29;42.40;92.80
19437;DHT22;9854;50.968;4.168;2023-07-08T16:00:57;42.40;92.70
19437;DHT22;9854;50.968;4.168;2023-07-08T16:03:26;42.40;92.80
19437;DHT22;9854;50.968;4.168;2023-07-08T16:05:53;41.80;93.30
19437;DHT22;9854;50.968;4.168;2023-07-08T16:08:19;41.60;94.30
19437;DHT22;9854;50.968;4.168;2023-07-08T16:11:04;40.60;95.10
19437;DHT22;9854;50.968;4.168;2023-07-08T16:13:33;40.50;95.70
19437;DHT22;9854;50.968;4.168;2023-07-08T16:16:00;40.70;95.00
19437;DHT22;9854;50.968;4.168;2023-07-08T16:18:26;40.80;95.30
19437;DHT22;9854;50.968;4.168;2023-07-08T16:20:52;41.00;94.60
19437;DHT22;9854;50.968;4.168;2023-07-08T16:23:18;41.00;95.00
19437;DHT22;9854;50.968;4.168;2023-07-08T16:25:48;41.40;94.00
19437;DHT22;9854;50.968;4.168;2023-07-08T16:28:41;41.50;93.00
19437;DHT22;9854;50.968;4.168;2023-07-08T16:31:21;41.80;93.30
19437;DHT22;9854;50.968;4.168;2023-07-08T16:33:48;41.00;93.00
19437;DHT22;9854;50.968;4.168;2023-07-08T16:36:22;41.00;93.20
19437;DHT22;9854;50.968;4.168;2023-07-08T16:38:48;40.70;94.10
19437;DHT22;9854;50.968;4.168;2023-07-08T16:41:22;41.30;93.60
19437;DHT22;9854;50.968;4.168;2023-07-08T16:43:49;41.50;93.30
19437;DHT22;9854;50.968;4.168;2023-07-08T16:46:18;40.90;93.20
19437;DHT22;9854;50.968;4.168;2023-07-08T16:48:44;40.80;93.70
19437;DHT22;9854;50.968;4.168;2023-07-08T16:51:18;40.80;93.10
19437;DHT22;9854;50.968;4.168;2023-07-08T16:53:45;40.80;93.30
19437;DHT22;9854;50.968;4.168;2023-07-08T16:56:12;41.20;93.10
19437;DHT22;9854;50.968;4.168;2023-07-08T16:58:38;41.30;92.60